Time;durP1;ratioP1;P1;durP2;ratioP2;P2;SDS_P1;SDS_P2;PMS_P1;PMS_P2;Temp;Humidity;BMP_temperature;BMP_pressure;BME280_temperature;BME280_humidity;BME280_pressure;Samples;Min_cycle;Max_cycle;Signal;HPM_P1;HPM_P2
2022/03/08 00:02:09;;;;;;;61.90;49.67;;;16.30;45.60;;;;;;4913600;28;91453;-67
2022/03/08 00:04:35;;;;;;;61.25;49.40;;;16.30;45.60;;;;;;4912798;28;89854;-67
2022/03/08 00:07:01;;;;;;;63.65;50.38;;;16.30;45.60;;;;;;4913024;28;92015;-67
2022/03/08 00:09:28;;;;;;;62.40;49.47;;;16.40;45.60;;;;;;4911534;28;90299;-67
2022/03/08 00:11:53;;;;;;;62.85;49.58;;;16.40;45.50;;;;;;4911084;28;89931;-67
2022/03/08 00:14:19;;;;;;;63.03;49.92;;;16.50;45.50;;;;;;4915668;28;90593;-67
2022/03/08 00:16:46;;;;;;;62.30;49.38;;;16.50;45.30;;;;;;4912966;28;89920;-68
2022/03/08 00:19:12;;;;;;;61.72;49.30;;;16.50;45.20;;;;;;4909838;28;89720;-67
2022/03/08 00:21:38;;;;;;;62.33;49.90;;;16.60;45.20;;;;;;4917192;28;90063;-67
2022/03/08 00:24:04;;;;;;;62.97;49.85;;;16.60;45.10;;;;;;4915976;28;97175;-67
2022/03/08 00:26:30;;;;;;;62.53;50.20;;;16.70;45.20;;;;;;4908733;28;91795;-67
2022/03/08 00:28:56;;;;;;;62.53;50.20;;;16.70;45.00;;;;;;4912700;28;90693;-67
2022/03/08 00:31:21;;;;;;;63.03;49.90;;;16.80;45.10;;;;;;4917003;28;89648;-67
2022/03/08 00:33:47;;;;;;;61.78;49.28;;;16.70;44.90;;;;;;4930712;28;90784;-68
2022/03/08 00:36:13;;;;;;;62.30;49.58;;;16.70;44.90;;;;;;4914656;28;90551;-67
2022/03/08 00:38:38;;;;;;;61.63;49.42;;;16.80;45.10;;;;;;4915578;28;89988;-67
2022/03/08 00:41:04;;;;;;;62.28;49.55;;;16.80;45.00;;;;;;4908678;28;96619;-67
2022/03/08 00:43:30;;;;;;;61.45;49.25;;;16.80;44.90;;;;;;4921080;28;88980;-67
2022/03/08 00:45:55;;;;;;;61.40;49.28;;;16.80;44.80;;;;;;4936916;28;90826;-67
2022/03/08 00:48:21;;;;;;;62.13;49.60;;;16.70;44.90;;;;;;4917969;28;90878;-67
2022/03/08 00:50:47;;;;;;;61.78;49.25;;;16.80;45.00;;;;;;4916987;28;93758;-68
2022/03/08 00:53:13;;;;;;;62.15;49.72;;;16.70;44.90;;;;;;4917721;28;89964;-67
2022/03/08 00:55:39;;;;;;;62.38;49.83;;;16.70;45.00;;;;;;4933588;28;93568;-67
2022/03/08 00:58:05;;;;;;;61.15;49.47;;;16.70;44.90;;;;;;4915438;28;90666;-66
2022/03/08 01:00:33;;;;;;;61.55;49.15;;;16.70;45.00;;;;;;4916406;28;90339;-67
2022/03/08 01:02:59;;;;;;;62.35;49.42;;;16.70;45.50;;;;;;4917621;28;93065;-67
2022/03/08 01:05:26;;;;;;;61.72;49.75;;;16.70;45.00;;;;;;4908105;28;93127;-67
2022/03/08 01:07:52;;;;;;;62.53;50.08;;;16.70;44.90;;;;;;4920422;28;88964;-67
2022/03/08 01:10:20;;;;;;;62.53;49.65;;;16.60;44.90;;;;;;4911045;28;93758;-67
2022/03/08 01:12:48;;;;;;;62.40;49.55;;;16.60;44.70;;;;;;4914600;28;91883;-67
2022/03/08 01:15:14;;;;;;;60.88;49.05;;;16.60;44.80;;;;;;4918477;28;91317;-68
2022/03/08 01:17:41;;;;;;;61.83;49.53;;;16.60;44.90;;;;;;4925491;28;90772;-67
2022/03/08 01:20:08;;;;;;;62.33;49.47;;;16.50;44.90;;;;;;4918905;28;91418;-68
2022/03/08 01:22:34;;;;;;;62.58;49.58;;;16.50;45.00;;;;;;4914235;28;92086;-67
2022/03/08 01:25:00;;;;;;;60.67;49.08;;;16.50;44.90;;;;;;4916891;28;90008;-67
2022/03/08 01:27:25;;;;;;;62.08;49.80;;;16.40;45.00;;;;;;4908446;28;91585;-68
2022/03/08 01:29:51;;;;;;;61.20;49.42;;;16.40;44.90;;;;;;4931619;28;93375;-67
2022/03/08 01:32:17;;;;;;;60.25;48.60;;;16.30;45.00;;;;;;4918554;28;89250;-68
2022/03/08 01:34:44;;;;;;;62.20;49.30;;;16.30;45.00;;;;;;4911853;28;91947;-67
2022/03/08 01:37:11;;;;;;;62.45;49.85;;;16.30;45.00;;;;;;4920837;28;89866;-68
2022/03/08 01:39:37;;;;;;;61.50;49.50;;;16.20;45.10;;;;;;4913101;28;91026;-67
2022/03/08 01:42:11;;;;;;;61.13;49.03;;;16.20;45.10;;;;;;4914409;28;90018;-67
2022/03/08 01:44:40;;;;;;;60.97;49.22;;;16.20;45.20;;;;;;4919381;28;89708;-67
2022/03/08 01:47:06;;;;;;;62.55;49.55;;;16.10;45.20;;;;;;4915166;28;90169;-67
2022/03/08 01:49:32;;;;;;;62.22;49.60;;;16.10;45.40;;;;;;4919418;28;89638;-67
2022/03/08 01:51:57;;;;;;;61.45;49.20;;;16.10;45.40;;;;;;4916512;28;90177;-67
2022/03/08 01:54:23;;;;;;;61.88;49.60;;;16.00;45.40;;;;;;4922249;28;90922;-67
2022/03/08 01:56:49;;;;;;;61.28;49.45;;;16.10;45.30;;;;;;4922398;28;89588;-67
2022/03/08 01:59:14;;;;;;;61.33;49.35;;;16.00;45.40;;;;;;4921139;28;90817;-68
2022/03/08 02:01:40;;;;;;;62.42;49.63;;;16.00;45.50;;;;;;4918893;28;89809;-67
2022/03/08 02:04:06;;;;;;;61.25;49.60;;;16.00;45.30;;;;;;4908429;28;91887;-67
2022/03/08 02:06:31;;;;;;;61.90;49.65;;;16.00;45.40;;;;;;4916848;28;90168;-68
2022/03/08 02:08:57;;;;;;;60.65;49.13;;;16.10;45.60;;;;;;4919172;28;90698;-67
2022/03/08 02:11:23;;;;;;;60.83;49.40;;;16.10;45.40;;;;;;4907433;28;92107;-67
2022/03/08 02:13:49;;;;;;;61.88;49.67;;;16.10;45.50;;;;;;4918309;28;89772;-67
2022/03/08 02:16:14;;;;;;;60.85;49.33;;;16.10;45.50;;;;;;4920519;28;90208;-67
2022/03/08 02:18:40;;;;;;;60.60;49.03;;;16.10;45.40;;;;;;4918644;28;90103;-67
2022/03/08 02:21:08;;;;;;;63.33;50.30;;;16.20;45.50;;;;;;4912185;28;90899;-67
2022/03/08 02:23:35;;;;;;;61.97;49.30;;;16.20;45.40;;;;;;4913195;28;90756;-67
2022/03/08 02:26:01;;;;;;;61.53;49.10;;;16.20;46.00;;;;;;4915788;28;90582;-67
2022/03/08 02:28:28;;;;;;;60.42;49.38;;;16.20;45.30;;;;;;4913955;28;91303;-67
2022/03/08 02:30:55;;;;;;;61.20;49.28;;;16.20;45.20;;;;;;4914232;28;89875;-68
2022/03/08 02:33:21;;;;;;;60.78;49.72;;;16.20;45.30;;;;;;4920612;28;90210;-67
2022/03/08 02:35:46;;;;;;;62.03;50.15;;;16.20;45.40;;;;;;4913574;28;92361;-67
2022/03/08 02:38:12;;;;;;;60.25;49.20;;;16.20;45.40;;;;;;4917293;28;89926;-68
2022/03/08 02:40:40;;;;;;;60.50;48.95;;;16.20;45.80;;;;;;4909739;28;90495;-68
2022/03/08 02:43:08;;;;;;;61.50;49.80;;;16.20;45.20;;;;;;4926732;28;93503;-67
2022/03/08 02:45:33;;;;;;;61.47;49.65;;;16.20;45.20;;;;;;4922736;28;91880;-67
2022/03/08 02:47:59;;;;;;;60.15;49.10;;;16.20;45.10;;;;;;4914371;28;96618;-68
2022/03/08 02:50:25;;;;;;;60.35;49.40;;;16.20;45.20;;;;;;4916411;28;91002;-67
2022/03/08 02:52:53;;;;;;;61.17;49.80;;;16.20;45.10;;;;;;4914259;28;94158;-68
2022/03/08 02:55:25;;;;;;;61.97;50.15;;;16.10;45.00;;;;;;4912241;28;90653;-68
2022/03/08 02:57:52;;;;;;;63.72;50.13;;;16.10;45.30;;;;;;4919523;28;89559;-68
2022/03/08 03:00:20;;;;;;;60.95;49.40;;;16.10;45.20;;;;;;4917222;28;89301;-68
2022/03/08 03:02:47;;;;;;;61.08;49.63;;;16.10;45.30;;;;;;4916959;28;90521;-67
2022/03/08 03:05:13;;;;;;;62.05;49.40;;;16.10;45.20;;;;;;4910578;28;90435;-68
2022/03/08 03:07:40;;;;;;;62.28;50.28;;;16.00;45.30;;;;;;4911703;28;89854;-67
2022/03/08 03:10:14;;;;;;;60.47;49.17;;;16.00;45.40;;;;;;4909761;28;89944;-68
2022/03/08 03:12:39;;;;;;;59.90;49.22;;;16.00;45.30;;;;;;4911009;28;91970;-68
2022/03/08 03:15:08;;;;;;;61.90;50.05;;;16.00;45.40;;;;;;4928175;28;91565;-67
2022/03/08 03:17:34;;;;;;;60.30;49.65;;;15.90;45.20;;;;;;4915054;28;91362;-67
2022/03/08 03:20:00;;;;;;;60.20;49.20;;;15.90;45.40;;;;;;4914308;28;92199;-67
2022/03/08 03:22:26;;;;;;;61.85;49.55;;;15.90;45.50;;;;;;4914178;28;89776;-67
2022/03/08 03:24:51;;;;;;;60.30;49.60;;;15.90;45.50;;;;;;4915803;28;90998;-68
2022/03/08 03:27:17;;;;;;;60.30;49.00;;;15.80;45.30;;;;;;4914893;28;91188;-67
2022/03/08 03:29:43;;;;;;;60.55;49.78;;;15.80;45.40;;;;;;4914090;28;92577;-67
2022/03/08 03:32:08;;;;;;;60.83;49.97;;;15.80;45.60;;;;;;4915261;28;89585;-67
2022/03/08 03:34:34;;;;;;;61.03;50.00;;;15.80;45.40;;;;;;4914575;28;90688;-70
2022/03/08 03:36:59;;;;;;;60.78;49.63;;;15.90;45.60;;;;;;4913797;28;89917;-67
2022/03/08 03:39:25;;;;;;;61.03;49.67;;;15.90;45.50;;;;;;4914766;28;90369;-68
2022/03/08 03:41:51;;;;;;;60.88;49.33;;;16.00;45.60;;;;;;4910460;28;90984;-68
2022/03/08 03:44:16;;;;;;;62.88;49.92;;;16.00;45.60;;;;;;4918253;28;90897;-67
2022/03/08 03:46:43;;;;;;;60.13;49.67;;;16.10;45.40;;;;;;4915179;28;89907;-67
2022/03/08 03:49:08;;;;;;;60.88;50.22;;;16.10;45.30;;;;;;4914323;28;92018;-68
2022/03/08 03:51:34;;;;;;;59.78;49.53;;;16.10;45.20;;;;;;4920806;28;90193;-68
2022/03/08 03:53:59;;;;;;;59.60;48.97;;;16.10;45.00;;;;;;4921728;28;91305;-68
2022/03/08 03:56:25;;;;;;;60.33;49.42;;;16.20;45.20;;;;;;4922341;28;89712;-67
2022/03/08 03:58:52;;;;;;;61.00;49.15;;;16.20;44.90;;;;;;4915354;28;89341;-67
2022/03/08 04:01:17;;;;;;;61.33;49.47;;;16.20;45.00;;;;;;4914161;28;90851;-68
2022/03/08 04:03:43;;;;;;;61.85;50.08;;;16.20;45.00;;;;;;4914337;28;90566;-68
2022/03/08 04:06:09;;;;;;;60.65;49.47;;;16.20;45.00;;;;;;4917300;28;91635;-68
2022/03/08 04:08:35;;;;;;;60.15;49.08;;;16.20;45.00;;;;;;4921025;28;90090;-67
2022/03/08 04:11:00;;;;;;;61.75;50.05;;;16.10;44.90;;;;;;4912851;28;89781;-68
2022/03/08 04:13:26;;;;;;;59.97;49.28;;;16.10;44.80;;;;;;4912180;28;89799;-68
2022/03/08 04:15:52;;;;;;;59.55;49.15;;;16.10;45.00;;;;;;4924367;28;89355;-67
2022/03/08 04:18:18;;;;;;;61.53;49.58;;;16.10;45.10;;;;;;4921188;28;89911;-67
2022/03/08 04:20:44;;;;;;;59.15;48.95;;;16.10;45.10;;;;;;4917055;28;89596;-67
2022/03/08 04:23:10;;;;;;;60.15;49.35;;;16.00;45.00;;;;;;4915139;28;92665;-68
2022/03/08 04:25:35;;;;;;;60.97;49.60;;;16.10;45.10;;;;;;4920361;28;89522;-68
2022/03/08 04:28:05;;;;;;;61.20;49.22;;;16.00;45.10;;;;;;4922396;28;91461;-68
2022/03/08 04:30:31;;;;;;;59.17;48.95;;;16.00;45.20;;;;;;4922291;28;91283;-67
2022/03/08 04:32:57;;;;;;;59.75;49.67;;;16.00;45.20;;;;;;4920730;28;90502;-68
2022/03/08 04:35:22;;;;;;;60.10;49.65;;;15.90;45.30;;;;;;4907945;28;90826;-68
2022/03/08 04:37:48;;;;;;;59.45;49.60;;;15.90;45.20;;;;;;4921325;28;89870;-67
2022/03/08 04:40:14;;;;;;;59.72;49.38;;;15.80;45.20;;;;;;4916106;28;90456;-67
2022/03/08 04:42:41;;;;;;;60.88;49.35;;;15.80;45.40;;;;;;4918903;28;89796;-67
2022/03/08 04:45:08;;;;;;;62.35;50.13;;;15.80;45.40;;;;;;4907854;28;90185;-67
2022/03/08 04:47:35;;;;;;;60.65;49.85;;;15.70;45.50;;;;;;4920811;28;88968;-67
2022/03/08 04:50:02;;;;;;;61.13;49.38;;;15.70;45.50;;;;;;4921459;28;90037;-67
2022/03/08 04:52:28;;;;;;;60.42;49.33;;;15.70;45.60;;;;;;4919243;28;90876;-67
2022/03/08 04:54:54;;;;;;;60.65;49.83;;;15.70;46.00;;;;;;4921489;28;90991;-67
2022/03/08 04:57:19;;;;;;;60.33;49.72;;;15.80;46.30;;;;;;4924530;28;89628;-67
2022/03/08 04:59:45;;;;;;;59.40;48.92;;;15.80;46.40;;;;;;4918107;28;90612;-67
2022/03/08 05:02:11;;;;;;;59.45;48.95;;;15.90;46.00;;;;;;4913102;28;91046;-67
2022/03/08 05:04:36;;;;;;;61.72;49.75;;;16.00;46.30;;;;;;4915894;28;90065;-67
2022/03/08 05:07:02;;;;;;;60.88;49.17;;;16.10;46.20;;;;;;4920468;28;89769;-67
2022/03/08 05:09:28;;;;;;;60.92;49.72;;;16.30;46.00;;;;;;4915985;28;90603;-65
2022/03/08 05:11:53;;;;;;;61.05;50.40;;;16.40;45.70;;;;;;4905682;28;90218;-67
2022/03/08 05:14:19;;;;;;;62.25;49.72;;;16.60;45.70;;;;;;4911475;28;90804;-68
2022/03/08 05:16:45;;;;;;;62.25;49.80;;;16.70;45.50;;;;;;4913953;28;89991;-68
2022/03/08 05:19:10;;;;;;;61.88;50.25;;;16.80;45.20;;;;;;4933041;28;94086;-68
2022/03/08 05:21:36;;;;;;;60.45;49.08;;;16.90;45.40;;;;;;4913197;28;92032;-68
2022/03/08 05:24:01;;;;;;;62.00;50.40;;;17.00;45.20;;;;;;4932980;28;90474;-68
2022/03/08 05:26:27;;;;;;;61.95;50.13;;;17.10;44.70;;;;;;4919293;28;91262;-68
2022/03/08 05:28:53;;;;;;;61.70;50.50;;;17.20;44.80;;;;;;4916940;28;90413;-68
2022/03/08 05:31:18;;;;;;;60.72;49.38;;;17.30;44.70;;;;;;4919701;28;89850;-68
2022/03/08 05:33:44;;;;;;;62.00;49.42;;;17.40;44.50;;;;;;4916971;28;89749;-68
2022/03/08 05:36:09;;;;;;;62.20;49.65;;;17.50;44.30;;;;;;4919533;28;88930;-68
2022/03/08 05:38:35;;;;;;;60.30;48.88;;;17.60;44.20;;;;;;4920179;28;90975;-68
2022/03/08 05:41:01;;;;;;;61.53;50.05;;;17.70;44.00;;;;;;4905770;28;89932;-68
2022/03/08 05:43:27;;;;;;;62.75;50.60;;;17.80;44.00;;;;;;4908694;28;91626;-66
2022/03/08 05:45:53;;;;;;;61.72;50.38;;;17.80;43.70;;;;;;4911910;28;89456;-69
2022/03/08 05:48:19;;;;;;;63.95;50.15;;;17.90;43.90;;;;;;4917509;28;89533;-69
2022/03/08 05:50:44;;;;;;;61.53;50.10;;;17.90;43.60;;;;;;4920279;28;89929;-69
2022/03/08 05:53:10;;;;;;;60.92;49.58;;;18.00;43.50;;;;;;4915993;28;89546;-70
2022/03/08 05:55:36;;;;;;;62.13;50.50;;;18.00;43.60;;;;;;4916389;28;89623;-68
2022/03/08 05:58:01;;;;;;;65.40;50.80;;;18.10;43.40;;;;;;4924662;28;90223;-67
2022/03/08 06:00:28;;;;;;;62.33;50.75;;;18.10;43.40;;;;;;4917219;28;89521;-70
2022/03/08 06:02:54;;;;;;;61.83;49.90;;;18.10;43.30;;;;;;4933073;28;90527;-66
2022/03/08 06:05:22;;;;;;;61.85;50.28;;;18.10;43.20;;;;;;4925375;28;90139;-67
2022/03/08 06:07:48;;;;;;;60.67;49.58;;;18.20;43.10;;;;;;4914742;28;91386;-67
2022/03/08 06:10:14;;;;;;;62.40;49.85;;;18.20;43.30;;;;;;4933012;28;95203;-68
2022/03/08 06:12:44;;;;;;;60.63;49.33;;;18.20;43.00;;;;;;4914014;28;89440;-67
2022/03/08 06:15:10;;;;;;;63.55;49.67;;;18.20;43.10;;;;;;4920489;28;90654;-69
2022/03/08 06:17:36;;;;;;;62.03;49.40;;;18.10;42.80;;;;;;4914490;28;91058;-69
2022/03/08 06:20:02;;;;;;;61.08;49.60;;;18.10;42.90;;;;;;4917008;28;90998;-69
2022/03/08 06:22:27;;;;;;;61.70;48.97;;;18.10;43.00;;;;;;4919945;28;90447;-66
2022/03/08 06:24:53;;;;;;;62.00;50.35;;;18.10;43.00;;;;;;4910077;28;94508;-66
2022/03/08 06:27:19;;;;;;;61.42;49.13;;;18.10;43.00;;;;;;4920780;28;90028;-68
2022/03/08 06:29:46;;;;;;;61.45;49.58;;;18.00;43.10;;;;;;4911127;28;92813;-68
2022/03/08 06:32:14;;;;;;;63.03;49.83;;;18.10;43.30;;;;;;4910921;28;91094;-70
2022/03/08 06:34:39;;;;;;;63.08;49.70;;;18.00;43.20;;;;;;4911976;28;89686;-69
2022/03/08 06:37:05;;;;;;;62.30;49.65;;;18.00;43.20;;;;;;4911065;28;90651;-68
2022/03/08 06:39:31;;;;;;;61.80;49.90;;;17.90;43.20;;;;;;4914923;28;91379;-69
2022/03/08 06:41:56;;;;;;;63.83;50.97;;;17.90;43.10;;;;;;4906895;28;90292;-71
2022/03/08 06:44:22;;;;;;;66.55;50.53;;;17.90;43.10;;;;;;4915697;28;90921;-71
2022/03/08 06:46:48;;;;;;;62.35;50.75;;;17.80;43.10;;;;;;4922810;28;90184;-71
2022/03/08 06:49:14;;;;;;;64.05;51.17;;;17.80;43.20;;;;;;4916151;28;89960;-72
2022/03/08 06:51:40;;;;;;;62.58;50.35;;;17.70;43.20;;;;;;4923596;28;90602;-71
2022/03/08 06:54:06;;;;;;;62.72;50.72;;;17.60;43.10;;;;;;4917126;28;92700;-70
2022/03/08 06:56:36;;;;;;;63.97;50.05;;;17.60;42.90;;;;;;4914159;28;94722;-71
2022/03/08 06:59:03;;;;;;;64.07;50.65;;;17.50;42.80;;;;;;4922548;28;89830;-71
2022/03/08 07:01:29;;;;;;;62.05;49.65;;;17.40;42.80;;;;;;4912524;28;89825;-71
2022/03/08 07:03:54;;;;;;;61.00;50.45;;;17.30;43.40;;;;;;4920408;28;89748;-71
2022/03/08 07:06:20;;;;;;;65.10;51.00;;;17.20;43.20;;;;;;4916113;28;90179;-71
2022/03/08 07:08:46;;;;;;;62.90;51.65;;;17.20;43.20;;;;;;4919883;28;90524;-71
2022/03/08 07:11:13;;;;;;;61.28;50.60;;;17.10;43.60;;;;;;4913000;28;93070;-71
2022/03/08 07:13:39;;;;;;;62.80;50.72;;;17.00;43.30;;;;;;4916256;28;89337;-71
2022/03/08 07:16:05;;;;;;;62.95;50.50;;;17.00;43.60;;;;;;4922807;28;89988;-70
2022/03/08 07:18:31;;;;;;;60.00;49.58;;;16.90;43.40;;;;;;4919188;28;90718;-71
2022/03/08 07:20:56;;;;;;;61.65;50.70;;;16.80;43.70;;;;;;4920844;28;91170;-71
2022/03/08 07:23:22;;;;;;;64.45;50.65;;;16.80;43.60;;;;;;4924265;28;89681;-71
2022/03/08 07:25:48;;;;;;;61.88;50.28;;;16.70;43.80;;;;;;4912440;28;90426;-71
2022/03/08 07:28:14;;;;;;;60.45;49.90;;;16.70;43.70;;;;;;4934163;28;90665;-71
2022/03/08 07:30:40;;;;;;;62.03;50.50;;;16.60;43.90;;;;;;4912767;28;89419;-71
2022/03/08 07:33:05;;;;;;;62.58;51.05;;;16.60;44.00;;;;;;4916392;28;90721;-71
2022/03/08 07:35:31;;;;;;;61.00;50.03;;;16.60;44.00;;;;;;4923055;28;90296;-71
2022/03/08 07:37:56;;;;;;;62.95;50.97;;;16.50;43.80;;;;;;4917464;28;91428;-71
2022/03/08 07:40:22;;;;;;;61.17;50.22;;;16.40;44.10;;;;;;4920692;28;90204;-71
2022/03/08 07:42:48;;;;;;;61.30;50.35;;;16.40;44.00;;;;;;4911329;28;89484;-71
2022/03/08 07:45:13;;;;;;;60.58;49.65;;;16.40;44.20;;;;;;4915091;28;90946;-71
2022/03/08 07:47:42;;;;;;;62.35;50.65;;;16.30;44.30;;;;;;4922225;28;90801;-70
2022/03/08 07:50:08;;;;;;;60.08;49.40;;;16.30;44.30;;;;;;4915408;28;90991;-71
2022/03/08 07:52:34;;;;;;;61.38;50.05;;;16.20;44.40;;;;;;4919565;28;89551;-71
2022/03/08 07:54:59;;;;;;;61.45;50.30;;;16.20;44.40;;;;;;4918393;28;89743;-70
2022/03/08 07:57:25;;;;;;;62.08;50.88;;;16.20;44.60;;;;;;4919801;28;90186;-71
2022/03/08 07:59:50;;;;;;;62.67;50.72;;;16.10;44.50;;;;;;4916890;28;90467;-71
2022/03/08 08:02:16;;;;;;;61.45;50.13;;;16.10;44.70;;;;;;4918145;28;88723;-70
2022/03/08 08:04:42;;;;;;;61.33;49.65;;;16.00;44.70;;;;;;4927191;28;93022;-71
2022/03/08 08:07:07;;;;;;;61.88;49.92;;;16.00;44.80;;;;;;4918457;28;91276;-70
2022/03/08 08:09:33;;;;;;;60.92;49.78;;;16.00;44.80;;;;;;4916296;28;90710;-71
2022/03/08 08:11:59;;;;;;;61.53;50.05;;;16.00;45.10;;;;;;4910121;28;89704;-71
2022/03/08 08:14:25;;;;;;;61.72;50.13;;;16.00;44.90;;;;;;4912248;28;90304;-70
2022/03/08 08:16:51;;;;;;;62.92;50.33;;;15.90;45.10;;;;;;4922985;28;90212;-70
2022/03/08 08:19:17;;;;;;;62.20;50.47;;;15.90;45.00;;;;;;4917027;28;91141;-70
2022/03/08 08:21:43;;;;;;;60.85;49.38;;;15.90;45.10;;;;;;4913507;28;91468;-70
2022/03/08 08:24:09;;;;;;;62.55;50.67;;;15.90;45.20;;;;;;4917872;28;90628;-70
2022/03/08 08:26:35;;;;;;;59.88;49.47;;;15.80;45.20;;;;;;4916383;28;89502;-71
2022/03/08 08:29:01;;;;;;;60.22;49.47;;;15.80;45.20;;;;;;4920107;28;89545;-71
2022/03/08 08:31:28;;;;;;;62.50;50.35;;;15.80;45.20;;;;;;4914482;28;90717;-71
2022/03/08 08:33:54;;;;;;;61.55;49.83;;;15.80;45.20;;;;;;4917115;28;91319;-71
2022/03/08 08:36:20;;;;;;;62.30;50.65;;;15.80;45.40;;;;;;4932753;28;94644;-71
2022/03/08 08:38:45;;;;;;;61.00;49.92;;;15.80;45.40;;;;;;4918755;28;89410;-72
2022/03/08 08:41:11;;;;;;;60.95;49.85;;;15.80;45.30;;;;;;4930805;28;90046;-71
2022/03/08 08:43:37;;;;;;;61.25;50.15;;;15.70;45.10;;;;;;4916231;28;89905;-71
2022/03/08 08:46:03;;;;;;;60.85;49.92;;;15.70;45.40;;;;;;4916262;28;90885;-71
2022/03/08 08:48:28;;;;;;;60.70;49.67;;;15.70;45.10;;;;;;4919810;28;89369;-71
2022/03/08 08:50:54;;;;;;;62.75;51.42;;;15.70;45.40;;;;;;4918836;28;91149;-71
2022/03/08 08:53:20;;;;;;;62.70;50.20;;;15.60;45.30;;;;;;4933736;28;92691;-71
2022/03/08 08:55:46;;;;;;;61.58;49.90;;;15.60;45.40;;;;;;4922140;28;89631;-70
2022/03/08 08:58:11;;;;;;;59.75;49.47;;;15.60;45.40;;;;;;4921508;28;90596;-70
2022/03/08 09:00:37;;;;;;;60.65;49.97;;;15.50;45.30;;;;;;4922423;28;89919;-70
2022/03/08 09:03:04;;;;;;;60.35;50.10;;;15.50;45.50;;;;;;4923934;28;89490;-71
2022/03/08 09:05:29;;;;;;;60.03;49.25;;;15.50;45.60;;;;;;4914740;28;90533;-70
2022/03/08 09:07:55;;;;;;;61.03;49.95;;;15.50;45.50;;;;;;4921471;28;90566;-70
2022/03/08 09:10:23;;;;;;;61.38;50.28;;;15.50;45.50;;;;;;4917892;28;89659;-70
2022/03/08 09:12:51;;;;;;;61.13;50.40;;;15.50;45.30;;;;;;4917189;28;91111;-71
2022/03/08 09:15:18;;;;;;;61.35;50.58;;;15.40;45.40;;;;;;4935236;28;91792;-70
2022/03/08 09:17:44;;;;;;;62.13;50.47;;;15.40;45.50;;;;;;4921570;28;93342;-70
2022/03/08 09:20:10;;;;;;;61.45;50.35;;;15.40;45.70;;;;;;4916047;28;89701;-71
2022/03/08 09:22:36;;;;;;;60.90;49.53;;;15.40;45.60;;;;;;4920140;28;93133;-71
2022/03/08 09:25:02;;;;;;;61.15;50.08;;;15.30;45.60;;;;;;4920282;28;90778;-71
2022/03/08 09:27:30;;;;;;;61.83;50.55;;;15.40;45.80;;;;;;4919988;28;90495;-70
2022/03/08 09:29:56;;;;;;;61.83;50.05;;;15.40;45.80;;;;;;4922862;28;92385;-70
2022/03/08 09:32:22;;;;;;;62.42;49.78;;;15.30;45.80;;;;;;4932932;28;91895;-71
2022/03/08 09:34:47;;;;;;;62.97;49.88;;;15.30;45.80;;;;;;4920246;28;91530;-70
2022/03/08 09:37:13;;;;;;;61.42;49.67;;;15.30;45.80;;;;;;4920006;28;89571;-70
2022/03/08 09:39:38;;;;;;;62.00;50.15;;;15.30;45.90;;;;;;4922072;28;89148;-70
2022/03/08 09:42:05;;;;;;;61.78;50.88;;;15.30;45.90;;;;;;4908755;28;90673;-71
2022/03/08 09:44:31;;;;;;;61.38;50.05;;;15.30;45.90;;;;;;4914968;28;90206;-71
2022/03/08 09:46:57;;;;;;;61.03;50.08;;;15.30;46.00;;;;;;4921386;28;90941;-70
2022/03/08 09:49:22;;;;;;;61.15;49.58;;;15.20;45.90;;;;;;4921907;28;90382;-70
2022/03/08 09:51:51;;;;;;;62.22;50.25;;;15.20;46.10;;;;;;4923235;28;90001;-71
2022/03/08 09:54:17;;;;;;;60.95;50.03;;;15.20;46.40;;;;;;4923226;28;89722;-71
2022/03/08 09:56:43;;;;;;;61.72;50.25;;;15.20;46.00;;;;;;4916784;28;89749;-70
2022/03/08 09:59:08;;;;;;;60.90;49.85;;;15.20;46.00;;;;;;4926467;28;89930;-71
2022/03/08 10:01:34;;;;;;;60.97;49.90;;;15.20;45.80;;;;;;4915753;28;89845;-71
2022/03/08 10:04:00;;;;;;;61.53;50.63;;;15.20;46.20;;;;;;4922403;28;90812;-71
2022/03/08 10:06:42;;;;;;;61.85;50.47;;;15.20;46.00;;;;;;4919368;28;89748;-71
2022/03/08 10:09:15;;;;;;;62.38;50.70;;;15.10;46.10;;;;;;4919443;28;90323;-71
2022/03/08 10:11:41;;;;;;;63.17;50.58;;;15.10;46.10;;;;;;4926553;28;94713;-70
2022/03/08 10:14:12;;;;;;;61.05;49.53;;;15.10;46.10;;;;;;4927337;28;93742;-72
2022/03/08 10:16:48;;;;;;;61.13;50.15;;;15.10;46.10;;;;;;4920884;28;89502;-70
2022/03/08 10:19:14;;;;;;;60.92;50.17;;;15.10;46.10;;;;;;4920195;28;90241;-70
2022/03/08 10:21:44;;;;;;;62.47;50.42;;;15.10;46.20;;;;;;4919965;28;90705;-71
2022/03/08 10:24:15;;;;;;;62.00;50.33;;;15.10;46.30;;;;;;4923807;28;89481;-71
2022/03/08 10:27:06;;;;;;;60.08;49.53;;;15.10;46.10;;;;;;4918755;28;89704;-71
2022/03/08 10:29:36;;;;;;;62.22;50.63;;;15.10;46.30;;;;;;4924293;28;89128;-70
2022/03/08 10:32:08;;;;;;;62.60;50.55;;;15.10;46.10;;;;;;4912849;28;89768;-71
2022/03/08 10:34:35;;;;;;;63.20;51.00;;;15.10;46.40;;;;;;4917450;28;92310;-71
2022/03/08 10:37:17;;;;;;;60.97;50.10;;;15.10;46.10;;;;;;4917617;28;90811;-71
2022/03/08 10:39:56;;;;;;;61.35;49.92;;;15.10;46.20;;;;;;4918682;28;90435;-70
2022/03/08 10:42:32;;;;;;;60.70;49.95;;;15.10;46.20;;;;;;4914266;28;90718;-70
2022/03/08 10:45:10;;;;;;;61.22;50.28;;;15.10;46.20;;;;;;4912990;28;90493;-71
2022/03/08 10:47:50;;;;;;;62.75;50.17;;;15.10;46.20;;;;;;4923688;28;89375;-70
2022/03/08 10:50:17;;;;;;;61.92;50.53;;;15.10;46.30;;;;;;4918926;28;90299;-71
2022/03/08 10:52:46;;;;;;;61.47;50.22;;;15.10;46.40;;;;;;4918142;28;90849;-73
2022/03/08 10:55:14;;;;;;;62.10;50.13;;;15.10;46.30;;;;;;4921045;28;89026;-71
2022/03/08 10:57:42;;;;;;;62.00;50.08;;;15.00;46.30;;;;;;4915917;28;89507;-71
2022/03/08 11:00:14;;;;;;;62.47;50.15;;;15.10;46.40;;;;;;4921089;28;89869;-72
2022/03/08 11:02:54;;;;;;;62.30;50.70;;;15.10;46.30;;;;;;4916666;28;92377;-70
2022/03/08 11:05:22;;;;;;;61.30;50.22;;;15.00;46.30;;;;;;4912405;28;92286;-70
2022/03/08 11:07:49;;;;;;;61.47;50.13;;;15.00;46.10;;;;;;4933230;28;91420;-71
2022/03/08 11:10:15;;;;;;;61.40;50.15;;;15.00;46.30;;;;;;4915476;28;89744;-70
2022/03/08 11:12:42;;;;;;;61.63;50.20;;;15.00;46.30;;;;;;4916923;28;90584;-71
2022/03/08 11:15:10;;;;;;;62.75;50.60;;;15.10;46.30;;;;;;4916915;28;89653;-71
2022/03/08 11:17:38;;;;;;;60.92;50.00;;;15.00;46.40;;;;;;4914740;28;90314;-71
2022/03/08 11:20:07;;;;;;;62.08;50.65;;;15.00;46.30;;;;;;4923959;28;89318;-71
2022/03/08 11:22:34;;;;;;;61.25;49.92;;;15.00;46.30;;;;;;4918009;28;89773;-71
2022/03/08 11:25:00;;;;;;;63.47;51.00;;;15.10;46.30;;;;;;4931429;28;91170;-70
2022/03/08 11:27:26;;;;;;;61.13;50.05;;;15.10;46.30;;;;;;4911582;28;91206;-71
2022/03/08 11:29:52;;;;;;;62.33;50.35;;;15.10;46.30;;;;;;4917980;28;89961;-71
2022/03/08 11:32:27;;;;;;;62.30;51.03;;;15.00;46.30;;;;;;4918144;28;89858;-70
2022/03/08 11:35:08;;;;;;;61.38;49.83;;;15.00;46.30;;;;;;4916175;28;89836;-71
2022/03/08 11:37:37;;;;;;;62.85;50.70;;;15.10;46.40;;;;;;4920599;28;89496;-71
2022/03/08 11:40:12;;;;;;;62.50;50.05;;;15.10;46.40;;;;;;4919590;28;89976;-71
2022/03/08 11:42:44;;;;;;;62.10;50.33;;;15.10;46.40;;;;;;4910051;28;90099;-71
2022/03/08 11:45:25;;;;;;;62.22;50.53;;;15.10;46.30;;;;;;4916980;28;91555;-71
2022/03/08 11:48:02;;;;;;;61.50;50.35;;;15.10;46.40;;;;;;4912666;28;89595;-72
2022/03/08 11:50:45;;;;;;;62.35;50.45;;;15.10;46.40;;;;;;4916875;28;89474;-71
2022/03/08 11:53:16;;;;;;;62.05;50.17;;;15.10;46.30;;;;;;4912925;28;92239;-71
2022/03/08 11:55:50;;;;;;;63.92;50.25;;;15.10;46.20;;;;;;4914332;28;91735;-71
2022/03/08 11:58:20;;;;;;;62.33;50.40;;;15.10;46.30;;;;;;4921658;28;89641;-70
2022/03/08 12:00:55;;;;;;;62.72;50.17;;;15.10;46.10;;;;;;4916507;28;94152;-71
2022/03/08 12:03:23;;;;;;;63.17;51.10;;;15.10;46.20;;;;;;4914394;28;92337;-71
2022/03/08 12:05:59;;;;;;;63.55;50.42;;;15.10;46.10;;;;;;4915075;28;90896;-71
2022/03/08 12:08:27;;;;;;;61.30;49.60;;;15.10;46.10;;;;;;4921293;28;89787;-70
2022/03/08 12:10:58;;;;;;;64.68;50.08;;;15.10;46.30;;;;;;4919183;28;89024;-71
2022/03/08 12:13:27;;;;;;;63.80;50.90;;;15.10;46.30;;;;;;4910222;28;90061;-71
2022/03/08 12:16:11;;;;;;;61.53;49.75;;;15.20;46.30;;;;;;4916454;28;90494;-71
2022/03/08 12:18:50;;;;;;;61.80;50.15;;;15.20;46.30;;;;;;4912857;28;90486;-71
2022/03/08 12:21:15;;;;;;;61.60;49.80;;;15.20;46.90;;;;;;4917039;28;90564;-70
2022/03/08 12:23:55;;;;;;;63.20;50.53;;;15.20;46.30;;;;;;4916791;28;93015;-71
2022/03/08 12:26:51;;;;;;;64.57;51.65;;;15.20;46.10;;;;;;4912843;28;90232;-70
2022/03/08 12:29:30;;;;;;;62.35;50.45;;;15.20;46.20;;;;;;4923437;28;89874;-71